createdAt,value
2023-08-29T00:01:59.073Z,14.52
2023-08-29T00:04:26.757Z,14.51
2023-08-29T00:06:54.425Z,14.49
2023-08-29T00:09:22.746Z,14.46
2023-08-29T00:11:50.437Z,14.41
2023-08-29T00:14:18.188Z,14.39
2023-08-29T00:16:46.016Z,14.34
2023-08-29T00:19:16.612Z,14.27
2023-08-29T00:21:44.322Z,14.20
2023-08-29T00:24:11.980Z,14.21
2023-08-29T00:26:39.601Z,14.23
2023-08-29T00:29:07.362Z,14.20
2023-08-29T00:31:35.126Z,14.16
2023-08-29T00:34:02.844Z,14.22
2023-08-29T00:36:33.938Z,14.27
2023-08-29T00:39:01.721Z,14.26
2023-08-29T00:41:29.457Z,14.31
2023-08-29T00:43:58.615Z,14.33
2023-08-29T00:46:27.873Z,14.34
2023-08-29T00:48:56.283Z,14.34
2023-08-29T00:51:25.529Z,14.33
2023-08-29T00:53:54.709Z,14.35
2023-08-29T00:56:22.518Z,14.36
2023-08-29T00:58:50.232Z,14.36
2023-08-29T01:01:18.720Z,14.37
2023-08-29T01:03:46.688Z,14.37
2023-08-29T01:06:16.713Z,14.38
2023-08-29T01:08:45.020Z,14.39
2023-08-29T01:11:17.731Z,14.38
2023-08-29T01:13:52.469Z,14.40
2023-08-29T01:16:22.487Z,14.38
2023-08-29T01:18:51.265Z,14.40
2023-08-29T01:21:27.052Z,14.39
2023-08-29T01:23:57.581Z,14.38
2023-08-29T01:26:27.575Z,14.39
2023-08-29T01:28:56.223Z,14.39
2023-08-29T01:31:24.308Z,14.40
2023-08-29T01:33:52.146Z,14.42
2023-08-29T01:36:19.854Z,14.45
2023-08-29T01:38:47.505Z,14.45
2023-08-29T01:41:15.214Z,14.41
2023-08-29T01:43:44.325Z,14.44
2023-08-29T01:46:12.768Z,14.45
2023-08-29T01:48:41.002Z,14.43
2023-08-29T01:51:08.775Z,14.41
2023-08-29T01:53:39.876Z,14.41
2023-08-29T01:56:09.755Z,14.39
2023-08-29T01:58:38.053Z,14.40
2023-08-29T02:01:21.470Z,14.37
2023-08-29T02:03:51.135Z,14.39
2023-08-29T02:06:20.299Z,14.38
2023-08-29T02:08:47.957Z,14.37
2023-08-29T02:11:15.794Z,14.30
2023-08-29T02:13:43.491Z,14.30
2023-08-29T02:16:13.364Z,14.27
2023-08-29T02:18:41.423Z,14.21
2023-08-29T02:21:09.118Z,14.19
2023-08-29T02:23:36.791Z,14.21
2023-08-29T02:26:06.914Z,14.23
2023-08-29T02:28:35.306Z,14.25
2023-08-29T02:31:06.325Z,14.27
2023-08-29T02:33:36.724Z,14.30
2023-08-29T02:36:05.582Z,14.29
2023-08-29T02:38:34.058Z,14.29
2023-08-29T02:41:01.791Z,14.28
2023-08-29T02:43:29.936Z,14.23
2023-08-29T02:45:57.837Z,14.23
2023-08-29T02:48:25.852Z,14.24
2023-08-29T02:50:54.973Z,14.22
2023-08-29T02:53:22.785Z,14.19
2023-08-29T02:55:51.844Z,14.16
2023-08-29T02:58:19.926Z,14.16
2023-08-29T03:00:48.697Z,14.18
2023-08-29T03:03:16.709Z,14.13
2023-08-29T03:05:44.427Z,14.10
2023-08-29T03:08:13.594Z,14.10
2023-08-29T03:10:41.363Z,14.01
2023-08-29T03:13:09.394Z,14.01
2023-08-29T03:15:37.217Z,14.04
2023-08-29T03:18:05.506Z,14.05
2023-08-29T03:20:34.498Z,14.04
2023-08-29T03:23:02.182Z,14.04
2023-08-29T03:25:31.227Z,14.02
2023-08-29T03:27:58.866Z,13.99
2023-08-29T03:30:27.135Z,13.94
2023-08-29T03:32:56.105Z,13.90
2023-08-29T03:35:24.168Z,13.90
2023-08-29T03:37:52.124Z,13.89
2023-08-29T03:40:20.215Z,13.89
2023-08-29T03:42:49.491Z,13.91
2023-08-29T03:45:17.178Z,13.86
2023-08-29T03:47:44.894Z,13.82
2023-08-29T03:50:12.645Z,13.82
2023-08-29T03:52:40.414Z,13.83
2023-08-29T03:55:09.668Z,13.81
2023-08-29T03:57:38.115Z,13.78
2023-08-29T04:00:11.699Z,13.78
2023-08-29T04:02:42.288Z,13.78
2023-08-29T04:05:15.555Z,13.76
2023-08-29T04:07:43.833Z,13.76
2023-08-29T04:10:11.756Z,13.79
2023-08-29T04:12:40.476Z,13.81
2023-08-29T04:15:12.193Z,13.82
2023-08-29T04:17:40.202Z,13.80
2023-08-29T04:20:09.629Z,13.84
2023-08-29T04:22:39.361Z,13.80
2023-08-29T04:25:07.768Z,13.78
2023-08-29T04:27:37.047Z,13.73
2023-08-29T04:30:05.600Z,13.70
2023-08-29T04:32:38.085Z,13.68
2023-08-29T04:35:07.155Z,13.65
2023-08-29T04:37:35.040Z,13.63
2023-08-29T04:40:02.776Z,13.65
2023-08-29T04:42:30.605Z,13.67
2023-08-29T04:44:58.296Z,13.69
2023-08-29T04:47:26.160Z,13.71
2023-08-29T04:49:55.519Z,13.70
2023-08-29T04:52:23.308Z,13.68
2023-08-29T04:54:51.085Z,13.70
2023-08-29T04:57:18.791Z,13.70
2023-08-29T04:59:46.463Z,13.71
2023-08-29T05:02:14.186Z,13.71
2023-08-29T05:04:43.391Z,13.66
2023-08-29T05:07:12.943Z,13.61
2023-08-29T05:09:40.696Z,13.64
2023-08-29T05:12:11.368Z,13.71
2023-08-29T05:14:39.616Z,13.74
2023-08-29T05:17:07.650Z,13.77
2023-08-29T05:19:35.371Z,13.77
2023-08-29T05:22:03.172Z,13.81
2023-08-29T05:24:32.666Z,13.85
2023-08-29T05:27:00.346Z,13.86
2023-08-29T05:29:27.958Z,13.91
2023-08-29T05:31:55.662Z,13.95
2023-08-29T05:34:23.279Z,13.99
2023-08-29T05:36:51.520Z,14.06
2023-08-29T05:39:19.182Z,14.09
2023-08-29T05:41:48.933Z,14.11
2023-08-29T05:44:16.655Z,14.13
2023-08-29T05:46:44.817Z,14.20
2023-08-29T05:49:12.468Z,14.26
2023-08-29T05:51:40.285Z,14.30
2023-08-29T05:54:08.080Z,14.36
2023-08-29T05:56:35.798Z,14.41
2023-08-29T05:59:04.853Z,14.44
2023-08-29T06:01:32.510Z,14.47
2023-08-29T06:04:00.324Z,14.57
2023-08-29T06:06:27.997Z,14.56
2023-08-29T06:08:55.676Z,14.60
2023-08-29T06:11:23.324Z,14.64
2023-08-29T06:13:52.718Z,14.72
2023-08-29T06:16:22.803Z,14.76
2023-08-29T06:18:50.629Z,14.79
2023-08-29T06:21:18.433Z,14.83
2023-08-29T06:23:46.095Z,14.90
2023-08-29T06:26:13.864Z,14.98
2023-08-29T06:28:41.707Z,15.05
2023-08-29T06:31:09.607Z,15.11
2023-08-29T06:33:39.198Z,15.14
2023-08-29T06:36:07.055Z,15.18
2023-08-29T06:38:36.005Z,15.14
2023-08-29T06:41:05.754Z,15.24
2023-08-29T06:43:33.462Z,15.25
2023-08-29T06:46:01.183Z,15.19
2023-08-29T06:48:28.896Z,15.23
2023-08-29T06:50:58.061Z,15.28
2023-08-29T06:53:27.779Z,15.30
2023-08-29T06:55:55.453Z,15.34
2023-08-29T06:58:23.145Z,15.34
2023-08-29T07:00:50.875Z,15.36
2023-08-29T07:03:18.581Z,15.33
2023-08-29T07:05:46.456Z,15.28
2023-08-29T07:08:15.472Z,15.34
2023-08-29T07:10:43.117Z,15.37
2023-08-29T07:13:10.876Z,15.45
2023-08-29T07:15:38.569Z,15.47
2023-08-29T07:18:07.226Z,15.52
2023-08-29T07:20:35.816Z,15.65
2023-08-29T07:23:03.864Z,15.77
2023-08-29T07:25:40.186Z,15.81
2023-08-29T07:28:09.063Z,15.89
2023-08-29T07:30:37.938Z,15.96
2023-08-29T07:33:05.926Z,15.89
2023-08-29T07:35:33.639Z,15.87
2023-08-29T07:38:01.375Z,15.93
2023-08-29T07:40:29.051Z,16.10
2023-08-29T07:42:58.199Z,16.07
2023-08-29T07:45:25.928Z,16.07
2023-08-29T07:47:53.697Z,16.11
2023-08-29T07:50:21.535Z,16.14
2023-08-29T07:52:49.297Z,16.15
2023-08-29T07:55:17.015Z,16.17
2023-08-29T07:57:44.698Z,16.23
2023-08-29T08:00:14.433Z,16.35
2023-08-29T08:02:42.464Z,16.36
2023-08-29T08:05:11.496Z,16.32
2023-08-29T08:07:39.232Z,16.42
2023-08-29T08:10:07.516Z,16.39
2023-08-29T08:12:36.005Z,16.49
2023-08-29T08:15:05.492Z,16.54
2023-08-29T08:17:34.680Z,16.45
2023-08-29T08:20:06.581Z,16.55
2023-08-29T08:22:34.243Z,16.70
2023-08-29T08:25:01.983Z,16.73
2023-08-29T08:27:30.913Z,16.65
2023-08-29T08:29:58.587Z,16.86
2023-08-29T08:32:26.403Z,16.91
2023-08-29T08:34:56.446Z,16.96
2023-08-29T08:37:24.305Z,17.06
2023-08-29T08:39:51.980Z,17.33
2023-08-29T08:42:20.549Z,17.20
2023-08-29T08:44:48.579Z,17.15
2023-08-29T08:47:16.235Z,17.44
2023-08-29T08:49:44.700Z,17.55
2023-08-29T08:52:14.841Z,17.64
2023-08-29T08:54:43.044Z,17.54
2023-08-29T08:57:12.940Z,17.76
2023-08-29T08:59:40.858Z,17.88
2023-08-29T09:02:11.342Z,17.77
2023-08-29T09:04:39.110Z,18.01
2023-08-29T09:07:06.820Z,18.19
2023-08-29T09:09:35.862Z,18.20
2023-08-29T09:12:03.592Z,18.22
2023-08-29T09:14:32.081Z,18.16
2023-08-29T09:17:00.742Z,18.11
2023-08-29T09:19:34.305Z,18.66
2023-08-29T09:22:02.189Z,18.60
2023-08-29T09:24:33.710Z,18.63
2023-08-29T09:27:05.035Z,18.63
2023-08-29T09:29:32.790Z,18.62
2023-08-29T09:32:00.788Z,18.66
2023-08-29T09:34:29.290Z,18.96
2023-08-29T09:36:57.522Z,19.06
2023-08-29T09:39:25.684Z,19.15
2023-08-29T09:42:00.650Z,18.70
2023-08-29T09:44:29.997Z,18.71
2023-08-29T09:46:58.185Z,18.79
2023-08-29T09:49:32.191Z,18.49
2023-08-29T09:52:02.260Z,18.77
2023-08-29T09:54:30.671Z,18.72
2023-08-29T09:57:01.859Z,18.77
2023-08-29T09:59:32.060Z,18.94
2023-08-29T10:02:00.050Z,19.06
2023-08-29T10:04:29.022Z,19.14
2023-08-29T10:06:59.645Z,19.15
2023-08-29T10:09:28.694Z,19.38
2023-08-29T10:11:56.815Z,19.05
2023-08-29T10:14:25.114Z,19.43
2023-08-29T10:16:55.180Z,19.70
2023-08-29T10:19:23.106Z,19.38
2023-08-29T10:21:51.578Z,19.56
2023-08-29T10:24:19.490Z,19.24
2023-08-29T10:26:47.331Z,19.47
2023-08-29T10:29:15.039Z,19.73
2023-08-29T10:31:43.957Z,19.71
2023-08-29T10:34:14.987Z,19.85
2023-08-29T10:36:42.788Z,19.62
2023-08-29T10:39:14.462Z,20.23
2023-08-29T10:41:48.478Z,20.26
2023-08-29T10:44:25.376Z,20.07
2023-08-29T10:46:53.791Z,20.36
2023-08-29T10:49:24.068Z,20.73
2023-08-29T10:52:09.398Z,20.79
2023-08-29T10:54:37.193Z,20.41
2023-08-29T10:57:27.047Z,20.58
2023-08-29T10:59:55.003Z,20.57
2023-08-29T11:02:23.102Z,20.42
2023-08-29T11:04:56.401Z,20.53
2023-08-29T11:07:26.694Z,20.84
2023-08-29T11:10:13.957Z,21.14
2023-08-29T11:13:00.255Z,21.69
2023-08-29T11:16:01.100Z,22.18
2023-08-29T11:18:31.218Z,22.29
2023-08-29T11:21:04.964Z,22.86
2023-08-29T11:23:34.984Z,22.71
2023-08-29T11:26:02.912Z,22.67
2023-08-29T11:28:32.393Z,22.60
2023-08-29T11:31:00.662Z,22.84
2023-08-29T11:33:32.252Z,22.23
2023-08-29T11:36:03.932Z,22.47
2023-08-29T11:38:32.160Z,22.21
2023-08-29T11:41:12.272Z,22.64
2023-08-29T11:44:18.447Z,22.52
2023-08-29T11:46:36.051Z,23.04
2023-08-29T11:49:12.379Z,23.36
2023-08-29T11:51:41.506Z,23.05
2023-08-29T11:54:24.083Z,24.24
2023-08-29T11:56:51.728Z,23.31
2023-08-29T11:59:19.505Z,23.44
2023-08-29T12:01:47.327Z,23.53
2023-08-29T12:04:15.126Z,23.65
2023-08-29T12:06:44.166Z,23.64
2023-08-29T12:09:22.903Z,23.26
2023-08-29T12:11:50.621Z,23.68
2023-08-29T12:14:19.274Z,23.25
2023-08-29T12:16:53.622Z,23.55
2023-08-29T12:19:21.343Z,24.06
2023-08-29T12:21:56.076Z,24.31
2023-08-29T12:24:23.831Z,23.66
2023-08-29T12:26:51.451Z,23.69
2023-08-29T12:29:19.127Z,22.94
2023-08-29T12:31:46.957Z,22.57
2023-08-29T12:34:14.643Z,22.73
2023-08-29T12:36:42.419Z,22.29
2023-08-29T12:39:14.792Z,22.03
2023-08-29T12:41:43.967Z,22.21
2023-08-29T12:44:11.628Z,21.96
2023-08-29T12:46:39.410Z,22.10
2023-08-29T12:49:07.149Z,22.03
2023-08-29T12:51:34.957Z,22.20
2023-08-29T12:54:03.795Z,22.26
2023-08-29T12:56:32.885Z,22.75
2023-08-29T12:59:00.603Z,23.34
2023-08-29T13:01:29.007Z,23.73
2023-08-29T13:03:57.540Z,23.31
2023-08-29T13:06:26.459Z,23.88
2023-08-29T13:08:54.815Z,24.14
2023-08-29T13:11:22.493Z,24.08
2023-08-29T13:13:52.040Z,24.19
2023-08-29T13:16:20.252Z,24.84
2023-08-29T13:18:48.282Z,24.17
2023-08-29T13:21:16.159Z,24.04
2023-08-29T13:23:43.844Z,23.25
2023-08-29T13:26:11.499Z,23.11
2023-08-29T13:28:39.283Z,22.75
2023-08-29T13:31:08.947Z,23.38
2023-08-29T13:33:37.159Z,23.11
2023-08-29T13:36:05.107Z,23.15
2023-08-29T13:38:32.714Z,22.99
2023-08-29T13:41:00.418Z,22.88
2023-08-29T13:43:28.137Z,22.74
2023-08-29T13:45:55.917Z,22.76
2023-08-29T13:48:25.047Z,22.34
2023-08-29T13:50:53.557Z,21.94
2023-08-29T13:53:21.237Z,22.03
2023-08-29T13:55:51.103Z,21.87
2023-08-29T13:58:19.085Z,22.03
2023-08-29T14:00:48.961Z,22.08
2023-08-29T14:03:29.197Z,22.18
2023-08-29T14:06:06.031Z,22.28
2023-08-29T14:08:34.058Z,22.60
2023-08-29T14:11:03.173Z,22.91
2023-08-29T14:13:33.310Z,22.44
2023-08-29T14:16:04.455Z,23.01
2023-08-29T14:18:32.579Z,22.50
2023-08-29T14:21:00.289Z,22.73
2023-08-29T14:23:29.611Z,22.34
2023-08-29T14:25:57.340Z,22.35
2023-08-29T14:28:26.448Z,22.46
2023-08-29T14:30:54.305Z,22.55
2023-08-29T14:33:22.059Z,22.46
2023-08-29T14:35:55.583Z,22.79
2023-08-29T14:38:23.314Z,22.52
2023-08-29T14:40:52.399Z,22.71
2023-08-29T14:43:20.166Z,22.41
2023-08-29T14:45:47.830Z,22.26
2023-08-29T14:48:15.644Z,22.39
2023-08-29T14:50:45.439Z,22.37
2023-08-29T14:53:13.231Z,22.67
2023-08-29T14:55:40.946Z,22.84
2023-08-29T14:58:10.352Z,22.84
2023-08-29T15:00:42.169Z,22.62
2023-08-29T15:03:10.642Z,23.01
2023-08-29T15:05:38.550Z,23.32
2023-08-29T15:08:06.721Z,23.53
2023-08-29T15:10:34.578Z,23.20
2023-08-29T15:13:02.280Z,22.85
2023-08-29T15:15:31.531Z,23.21
2023-08-29T15:17:59.328Z,23.00
2023-08-29T15:20:29.477Z,23.27
2023-08-29T15:22:57.144Z,22.93
2023-08-29T15:25:25.096Z,22.83
2023-08-29T15:27:52.805Z,22.70
2023-08-29T15:30:20.462Z,22.81
2023-08-29T15:32:49.662Z,22.80
2023-08-29T15:35:17.455Z,22.85
2023-08-29T15:37:45.740Z,22.75
2023-08-29T15:40:13.505Z,22.54
2023-08-29T15:42:41.285Z,22.35
2023-08-29T15:45:10.058Z,22.42
2023-08-29T15:47:37.833Z,22.47
2023-08-29T15:50:07.907Z,22.34
2023-08-29T15:52:35.564Z,22.10
2023-08-29T15:55:05.502Z,22.16
2023-08-29T15:57:33.325Z,22.20
2023-08-29T16:00:01.517Z,21.86
2023-08-29T16:02:29.680Z,21.89
2023-08-29T16:04:57.685Z,21.98
2023-08-29T16:07:26.996Z,21.88
2023-08-29T16:09:54.964Z,21.67
2023-08-29T16:12:22.638Z,21.74
2023-08-29T16:14:50.507Z,21.73
2023-08-29T16:17:18.598Z,21.38
2023-08-29T16:19:46.724Z,21.34
2023-08-29T16:22:14.517Z,21.26
2023-08-29T16:24:43.690Z,21.33
2023-08-29T16:27:11.390Z,21.37
2023-08-29T16:29:39.727Z,21.30
2023-08-29T16:32:07.977Z,21.17
2023-08-29T16:34:36.106Z,21.09
2023-08-29T16:37:04.324Z,20.96
2023-08-29T16:39:34.083Z,20.86
2023-08-29T16:42:04.156Z,20.88
2023-08-29T16:44:32.092Z,20.86
2023-08-29T16:47:03.663Z,20.69
2023-08-29T16:49:31.931Z,20.84
2023-08-29T16:52:00.370Z,20.86
2023-08-29T16:54:28.933Z,20.71
2023-08-29T16:56:57.713Z,20.73
2023-08-29T16:59:27.492Z,20.65
2023-08-29T17:01:55.881Z,20.63
2023-08-29T17:04:26.038Z,20.55
2023-08-29T17:06:54.025Z,20.45
2023-08-29T17:09:22.848Z,20.42
2023-08-29T17:11:52.668Z,20.33
2023-08-29T17:14:25.287Z,20.45
2023-08-29T17:16:55.066Z,20.44
2023-08-29T17:19:23.527Z,20.56
2023-08-29T17:21:57.089Z,20.53
2023-08-29T17:24:32.397Z,20.64
2023-08-29T17:27:03.765Z,20.70
2023-08-29T17:29:32.295Z,20.76
2023-08-29T17:32:02.369Z,20.75
2023-08-29T17:34:33.141Z,20.78
2023-08-29T17:37:00.987Z,20.67
2023-08-29T17:39:29.036Z,20.56
2023-08-29T17:41:56.808Z,20.35
2023-08-29T17:44:24.666Z,20.28
2023-08-29T17:46:52.371Z,20.19
2023-08-29T17:49:21.539Z,20.26
2023-08-29T17:51:49.998Z,20.35
2023-08-29T17:54:18.232Z,20.37
2023-08-29T17:56:46.511Z,20.36
2023-08-29T17:59:14.209Z,20.34
2023-08-29T18:01:41.919Z,20.21
2023-08-29T18:04:10.584Z,20.10
2023-08-29T18:06:39.597Z,19.94
2023-08-29T18:09:07.263Z,19.84
2023-08-29T18:11:35.023Z,19.78
2023-08-29T18:14:02.736Z,19.71
2023-08-29T18:16:30.546Z,19.65
2023-08-29T18:19:00.616Z,19.61
2023-08-29T18:21:28.667Z,19.53
2023-08-29T18:23:57.990Z,19.43
2023-08-29T18:26:25.761Z,19.32
2023-08-29T18:28:53.456Z,19.21
2023-08-29T18:31:21.154Z,19.11
2023-08-29T18:33:48.960Z,18.89
2023-08-29T18:36:16.768Z,18.84
2023-08-29T18:38:44.677Z,18.67
2023-08-29T18:41:13.901Z,18.39
2023-08-29T18:43:41.603Z,18.25
2023-08-29T18:46:09.650Z,18.21
2023-08-29T18:48:37.439Z,18.11
2023-08-29T18:51:05.191Z,18.17
2023-08-29T18:53:32.891Z,18.19
2023-08-29T18:56:00.629Z,18.19
2023-08-29T18:58:29.739Z,18.13
2023-08-29T19:00:57.488Z,18.10
2023-08-29T19:03:25.179Z,18.04
2023-08-29T19:05:53.124Z,18.02
2023-08-29T19:08:21.085Z,17.93
2023-08-29T19:10:50.381Z,17.85
2023-08-29T19:13:18.143Z,17.80
2023-08-29T19:15:47.916Z,17.77
2023-08-29T19:18:15.855Z,17.49
2023-08-29T19:20:44.376Z,17.33
2023-08-29T19:23:12.104Z,17.24
2023-08-29T19:25:40.456Z,17.22
2023-08-29T19:28:09.743Z,17.25
2023-08-29T19:30:37.659Z,17.32
2023-08-29T19:33:11.909Z,17.38
2023-08-29T19:35:40.139Z,17.35
2023-08-29T19:38:08.839Z,17.29
2023-08-29T19:40:36.715Z,17.23
2023-08-29T19:43:05.357Z,17.15
2023-08-29T19:45:33.379Z,17.13
2023-08-29T19:48:01.237Z,17.09
2023-08-29T19:50:31.302Z,16.89
2023-08-29T19:52:59.108Z,16.75
2023-08-29T19:55:26.993Z,16.74
2023-08-29T19:57:54.649Z,16.88
2023-08-29T20:00:22.343Z,16.89
2023-08-29T20:02:50.851Z,16.85
2023-08-29T20:05:18.720Z,16.92
2023-08-29T20:07:47.806Z,17.01
2023-08-29T20:10:15.738Z,17.01
2023-08-29T20:12:43.475Z,16.99
2023-08-29T20:15:11.769Z,17.05
2023-08-29T20:17:39.632Z,17.07
2023-08-29T20:20:08.953Z,17.14
2023-08-29T20:22:36.756Z,17.14
2023-08-29T20:25:10.243Z,16.92
2023-08-29T20:27:37.991Z,16.79
2023-08-29T20:30:07.486Z,16.63
2023-08-29T20:32:35.393Z,16.66
2023-08-29T20:35:03.085Z,16.60
2023-08-29T20:37:30.828Z,16.77
2023-08-29T20:39:58.749Z,16.81
2023-08-29T20:42:28.160Z,16.71
2023-08-29T20:44:58.124Z,16.65
2023-08-29T20:47:25.895Z,16.66
2023-08-29T20:49:53.802Z,16.63
2023-08-29T20:52:21.458Z,16.69
2023-08-29T20:54:49.256Z,16.79
2023-08-29T20:57:16.981Z,16.77
2023-08-29T20:59:46.562Z,16.71
2023-08-29T21:02:14.345Z,16.75
2023-08-29T21:04:42.104Z,16.71
2023-08-29T21:07:10.313Z,16.72
2023-08-29T21:09:38.201Z,16.74
2023-08-29T21:12:06.391Z,16.81
2023-08-29T21:14:34.137Z,16.79
2023-08-29T21:17:03.778Z,16.75
2023-08-29T21:19:31.804Z,16.73
2023-08-29T21:21:59.516Z,16.78
2023-08-29T21:24:27.930Z,16.85
2023-08-29T21:26:55.593Z,16.88
2023-08-29T21:29:23.288Z,16.83
2023-08-29T21:31:51.055Z,16.82
2023-08-29T21:34:20.260Z,16.63
2023-08-29T21:36:47.979Z,16.58
2023-08-29T21:39:15.693Z,16.63
2023-08-29T21:41:43.472Z,16.63
2023-08-29T21:44:11.963Z,16.54
2023-08-29T21:46:39.727Z,16.51
2023-08-29T21:49:07.452Z,16.53
2023-08-29T21:51:36.485Z,16.54
2023-08-29T21:54:04.140Z,16.49
2023-08-29T21:56:31.861Z,16.51
2023-08-29T21:58:59.609Z,16.51
2023-08-29T22:01:27.376Z,16.53
2023-08-29T22:03:55.298Z,16.39
2023-08-29T22:06:23.006Z,16.23
2023-08-29T22:08:52.093Z,16.17
2023-08-29T22:11:19.760Z,16.15
2023-08-29T22:13:47.436Z,16.11
2023-08-29T22:16:15.307Z,16.12
2023-08-29T22:18:42.965Z,16.18
2023-08-29T22:21:10.680Z,16.20
2023-08-29T22:23:38.326Z,16.15
2023-08-29T22:26:08.192Z,16.18
2023-08-29T22:28:35.949Z,16.03
2023-08-29T22:31:03.956Z,16.09
2023-08-29T22:33:32.798Z,16.13
2023-08-29T22:36:00.815Z,16.09
2023-08-29T22:38:28.601Z,16.10
2023-08-29T22:41:09.450Z,16.12
2023-08-29T22:43:40.880Z,16.13
2023-08-29T22:46:09.563Z,16.10
2023-08-29T22:48:37.303Z,16.09
2023-08-29T22:51:05.325Z,16.08
2023-08-29T22:53:33.027Z,16.03
2023-08-29T22:56:03.675Z,16.04
2023-08-29T22:58:33.366Z,16.04
2023-08-29T23:01:06.481Z,16.01
2023-08-29T23:03:34.126Z,16.02
2023-08-29T23:06:01.855Z,16.01
2023-08-29T23:08:29.633Z,15.98
2023-08-29T23:11:00.161Z,15.88
2023-08-29T23:13:28.154Z,15.89
2023-08-29T23:16:02.948Z,15.91
2023-08-29T23:18:30.937Z,15.84
2023-08-29T23:20:58.607Z,15.84
2023-08-29T23:23:26.328Z,15.75
2023-08-29T23:25:56.260Z,15.76
2023-08-29T23:28:23.897Z,15.71
2023-08-29T23:30:52.554Z,15.68
2023-08-29T23:33:22.575Z,15.68
2023-08-29T23:35:50.487Z,15.65
2023-08-29T23:38:18.340Z,15.67
2023-08-29T23:40:47.931Z,15.68
2023-08-29T23:43:15.595Z,15.66
2023-08-29T23:45:43.292Z,15.63
2023-08-29T23:48:11.934Z,15.62
2023-08-29T23:50:41.364Z,15.67
2023-08-29T23:53:09.348Z,15.69
2023-08-29T23:55:36.998Z,15.74
2023-08-29T23:58:04.918Z,15.68
